Главная страница
METAR-TAF:

METAR-TAF

Аэропорты :

Воронеж, Россия

широта: 51-39N, долгота: 039-15E, высота над уровнем моря: 154 м

Текущие метеонаблюдения

Эта сводка был подготовлена 39 минут назад, в 01:00 UTC
Ветер 4 Узел от западно-северо-западный
Температура 5°C
Влажность 93%
Давление 1028 hPa
Видимость: 6000 м

METAR: UUOO 160100Z 29002MPS 6000 NSC 05/04 Q1028 R30/090070 TEMPO 0400 FG RMK QFE757

Время: 04:39 (01:39 UTC)

Прогноз

Эта сводка был подготовлена 2 часа и 39 минут назад, в 23:00 UTC
Прогноз действительный с 16-го 00 UTC до 16-го 09 UTC
Ветер 4 Узел от западный
Видимость: 4000 м
дымка
временами
С 16-го 01 UTC до 16-го 06 UTC
Видимость: 0400 м
туман
изменения
С 16-го 06 UTC до 16-го 08 UTC
Видимость 10 км и более

TAF: UUOO 152300Z 1600/1609 28002MPS 4000 BR NSC TEMPO 1601/1606 0400 FG BECMG 1606/1608 9999 NSW

Метеонаблюдения и прогнозы для более 4000 аэропортов (сводки METAR и TAF).

Имеющиеся станции представлены на карте желтыми и красными точками.

Чтобы увидеть название станции, наведите на нее мышь.

Затем щелкните, чтобы увидеть метеонаблюдения и метеопрогнозы.

Управление картой: чтобы увеличить масштаб, щелкните зеленые кнопки с черным крестиком; чтобы уменьшить масштаб, щелкните зеленую кнопку с тире; для просмотра соседних карт щелкайте зеленые стрелки.


METAR-TAF: